Time;durP1;ratioP1;P1;durP2;ratioP2;P2;SDS_P1;SDS_P2;PMS_P1;PMS_P2;Temp;Humidity;BMP_temperature;BMP_pressure;BME280_temperature;BME280_humidity;BME280_pressure;Samples;Min_cycle;Max_cycle;Signal;HPM_P1;HPM_P2
2023/09/19 00:01:08;;;;;;;1.75;0.95;;;;;;;11.76;100.00;99485.56;5026361;28;20149;-77
2023/09/19 00:03:38;;;;;;;0.47;0.47;;;;;;;11.83;100.00;99481.78;5059297;28;20459;-77
2023/09/19 00:06:06;;;;;;;0.93;0.70;;;;;;;11.94;100.00;99482.19;5058921;28;20043;-76
2023/09/19 00:08:33;;;;;;;1.00;0.65;;;;;;;12.00;100.00;99487.53;5058786;28;20036;-76
2023/09/19 00:11:05;;;;;;;0.93;0.63;;;;;;;12.08;100.00;99489.13;5059342;28;20037;-76
2023/09/19 00:13:33;;;;;;;1.05;1.05;;;;;;;12.12;100.00;99482.28;5043495;28;20032;-77
2023/09/19 00:15:59;;;;;;;2.42;0.80;;;;;;;12.19;100.00;99474.16;5075265;28;20463;-76
2023/09/19 00:18:32;;;;;;;2.80;1.33;;;;;;;12.22;100.00;99454.84;5058940;28;20032;-76
2023/09/19 00:21:04;;;;;;;3.83;1.15;;;;;;;12.24;100.00;99458.97;5075219;28;20075;-77
2023/09/19 00:23:31;;;;;;;2.15;1.15;;;;;;;12.28;100.00;99449.41;5075501;28;20051;-76
2023/09/19 00:26:00;;;;;;;2.35;1.27;;;;;;;12.29;100.00;99445.66;5059029;28;20060;-76
2023/09/19 00:28:31;;;;;;;3.33;1.58;;;;;;;12.34;100.00;99447.72;5058645;28;20090;-78
2023/09/19 00:31:01;;;;;;;1.92;1.10;;;;;;;12.37;100.00;99430.28;5059108;28;20035;-77
2023/09/19 00:33:29;;;;;;;1.02;0.65;;;;;;;12.37;100.00;99422.19;5075214;28;20426;-78
2023/09/19 00:35:57;;;;;;;3.08;1.05;;;;;;;12.37;100.00;99420.31;5058895;28;20037;-77
2023/09/19 00:38:26;;;;;;;1.05;0.90;;;;;;;12.36;100.00;99415.97;5058592;28;20121;-77
2023/09/19 00:40:54;;;;;;;2.67;0.80;;;;;;;12.32;100.00;99402.09;5059128;28;20035;-76
2023/09/19 00:43:20;;;;;;;2.50;1.15;;;;;;;12.28;100.00;99392.81;5041886;28;20032;-77
2023/09/19 00:45:48;;;;;;;6.78;1.15;;;;;;;12.36;100.00;99405.19;5041867;28;20537;-77
2023/09/19 00:48:15;;;;;;;0.55;0.50;;;;;;;12.37;100.00;99392.53;5058255;28;20029;-76
2023/09/19 00:50:42;;;;;;;1.05;0.90;;;;;;;12.40;100.00;99392.91;5057823;28;20540;-77
2023/09/19 00:53:09;;;;;;;2.35;0.60;;;;;;;12.40;100.00;99373.22;5058369;28;20125;-76
2023/09/19 00:55:37;;;;;;;10.80;1.88;;;;;;;12.40;100.00;99362.44;5041881;28;20029;-77
2023/09/19 00:58:05;;;;;;;7.30;1.58;;;;;;;12.42;100.00;99366.56;5074104;28;20029;-76
2023/09/19 01:00:33;;;;;;;4.07;1.55;;;;;;;12.45;100.00;99362.59;5041711;28;20376;-76
2023/09/19 01:03:03;;;;;;;5.15;1.90;;;;;;;12.46;100.00;99353.44;5058249;28;20032;-78
2023/09/19 01:05:32;;;;;;;4.15;1.00;;;;;;;12.47;100.00;99338.94;5025751;28;20044;-76
2023/09/19 01:07:58;;;;;;;5.93;1.52;;;;;;;12.47;100.00;99338.94;5057797;28;20460;-77
2023/09/19 01:10:25;;;;;;;3.42;1.50;;;;;;;12.48;100.00;99336.00;5057862;28;20036;-76
2023/09/19 01:13:05;;;;;;;3.70;1.30;;;;;;;12.46;100.00;99321.94;5058137;28;20054;-77
2023/09/19 01:15:52;;;;;;;2.67;1.40;;;;;;;12.47;100.00;99322.78;5041428;28;20032;-77
2023/09/19 01:18:20;;;;;;;5.85;1.67;;;;;;;12.47;100.00;99320.06;5057798;28;20033;-76
2023/09/19 01:20:49;;;;;;;1.88;1.10;;;;;;;12.46;100.00;99302.22;5057850;28;20039;-76
2023/09/19 01:23:40;;;;;;;2.75;1.17;;;;;;;12.48;100.00;99289.38;5073897;28;20024;-76
2023/09/19 01:26:44;;;;;;;4.85;1.52;;;;;;;12.48;100.00;99287.47;5041987;28;20043;-77
2023/09/19 01:29:29;;;;;;;3.83;1.20;;;;;;;12.49;100.00;99274.81;4996712;28;20499;-77
2023/09/19 01:32:01;;;;;;;2.28;1.20;;;;;;;12.51;100.00;99264.66;4997379;28;20160;-76
2023/09/19 01:34:27;;;;;;;2.03;1.02;;;;;;;12.53;100.00;99257.97;5028871;28;20476;-76
2023/09/19 01:36:52;;;;;;;5.85;1.88;;;;;;;12.55;100.00;99249.69;5041087;28;20033;-77
2023/09/19 01:39:18;;;;;;;6.47;1.77;;;;;;;12.57;100.00;99233.25;5040874;28;20059;-76
2023/09/19 01:42:22;;;;;;;1.55;1.30;;;;;;;12.57;100.00;99234.09;5073731;28;20032;-77
2023/09/19 01:44:48;;;;;;;3.90;1.40;;;;;;;12.58;100.00;99216.88;5005119;28;20044;-78
2023/09/19 01:47:20;;;;;;;2.65;0.80;;;;;;;12.57;100.00;99209.00;5057066;28;20395;-76
2023/09/19 01:49:57;;;;;;;2.88;0.90;;;;;;;12.55;100.00;99190.38;5057131;28;20036;-76
2023/09/19 01:52:28;;;;;;;0.93;0.57;;;;;;;12.52;100.00;99180.84;5057517;28;20071;-76
2023/09/19 01:54:58;;;;;;;1.20;0.60;;;;;;;12.50;100.00;99174.84;5040583;28;20040;-76
2023/09/19 01:57:29;;;;;;;4.65;1.40;;;;;;;12.51;100.00;99168.41;5073288;28;20483;-76
2023/09/19 02:00:06;;;;;;;3.83;1.35;;;;;;;12.51;100.00;99157.63;5056802;28;20033;-76
2023/09/19 02:02:38;;;;;;;1.17;1.08;;;;;;;12.52;100.00;99150.38;5040507;28;20071;-76
2023/09/19 02:05:04;;;;;;;3.97;1.38;;;;;;;12.53;100.00;99155.53;5073532;28;20036;-76
2023/09/19 02:07:33;;;;;;;1.67;1.02;;;;;;;12.55;100.00;99149.91;5040315;28;20107;-76
2023/09/19 02:10:00;;;;;;;0.88;0.63;;;;;;;12.56;100.00;99142.66;5039543;28;20029;-77
2023/09/19 02:12:26;;;;;;;1.23;0.77;;;;;;;12.57;100.00;99144.28;5073431;28;20032;-76
2023/09/19 02:14:52;;;;;;;4.10;1.00;;;;;;;12.57;100.00;99139.75;5072936;28;20036;-76
2023/09/19 02:17:17;;;;;;;1.05;0.68;;;;;;;12.61;100.00;99130.13;5056354;28;20114;-76
2023/09/19 02:19:43;;;;;;;2.80;1.23;;;;;;;12.62;100.00;99125.53;5040089;28;20035;-76
2023/09/19 02:22:10;;;;;;;2.42;1.73;;;;;;;12.64;100.00;99118.88;5056054;28;20024;-76
2023/09/19 02:24:38;;;;;;;1.75;0.68;;;;;;;12.67;100.00;99107.63;5056882;28;20089;-77
2023/09/19 02:27:04;;;;;;;0.98;0.52;;;;;;;12.71;100.00;99114.22;5056537;28;20103;-77
2023/09/19 02:29:30;;;;;;;1.45;0.82;;;;;;;12.73;100.00;99105.91;5039847;28;20052;-77
2023/09/19 02:31:56;;;;;;;0.50;0.50;;;;;;;12.76;100.00;99092.78;5039927;28;20462;-77
2023/09/19 02:34:22;;;;;;;2.22;0.65;;;;;;;12.75;100.00;99082.22;5072520;28;20110;-77
2023/09/19 02:36:48;;;;;;;1.50;0.80;;;;;;;12.84;100.00;99085.41;5073006;28;20040;-76
2023/09/19 02:39:14;;;;;;;1.92;0.65;;;;;;;12.88;100.00;99078.47;5056138;28;20058;-77
2023/09/19 02:41:41;;;;;;;0.45;0.45;;;;;;;12.94;100.00;99069.47;5039452;28;20032;-76
2023/09/19 02:44:07;;;;;;;0.73;0.52;;;;;;;12.98;100.00;99062.56;5072820;28;20119;-76
2023/09/19 02:46:35;;;;;;;0.75;0.60;;;;;;;13.06;100.00;99051.41;5056164;28;20029;-77
2023/09/19 02:49:05;;;;;;;1.83;0.75;;;;;;;13.10;100.00;99041.81;5039856;28;20036;-76
2023/09/19 02:51:31;;;;;;;3.92;0.55;;;;;;;13.16;100.00;99031.94;5072814;28;20103;-76
2023/09/19 02:53:57;;;;;;;0.50;0.50;;;;;;;13.20;100.00;99031.25;5072754;28;20033;-76
2023/09/19 02:56:24;;;;;;;0.55;0.45;;;;;;;13.33;100.00;99032.09;5055804;28;20024;-76
2023/09/19 02:58:51;;;;;;;1.17;0.40;;;;;;;13.41;100.00;99037.13;5039660;28;20097;-76
2023/09/19 03:01:19;;;;;;;0.20;0.20;;;;;;;13.49;100.00;99027.84;5072600;28;20032;-76
2023/09/19 03:03:44;;;;;;;0.40;0.40;;;;;;;13.55;100.00;99029.59;5072437;28;20112;-77
2023/09/19 03:06:12;;;;;;;0.43;0.43;;;;;;;13.57;100.00;99024.75;5055579;28;20032;-77
2023/09/19 03:08:39;;;;;;;0.30;0.30;;;;;;;13.71;100.00;99009.16;5072274;28;20484;-77
2023/09/19 03:11:06;;;;;;;0.45;0.43;;;;;;;13.81;100.00;99012.88;5055623;28;20033;-77
2023/09/19 03:13:32;;;;;;;0.30;0.30;;;;;;;13.92;100.00;99004.94;5039589;28;20039;-77
2023/09/19 03:15:58;;;;;;;0.30;0.30;;;;;;;13.99;100.00;99000.22;5039166;28;20036;-77
2023/09/19 03:18:27;;;;;;;0.30;0.30;;;;;;;14.04;100.00;98997.63;5039176;28;20081;-77
2023/09/19 03:20:54;;;;;;;0.47;0.40;;;;;;;14.11;100.00;98990.19;5055704;28;20122;-76
2023/09/19 03:23:20;;;;;;;0.40;0.40;;;;;;;14.18;100.00;98993.53;5039277;28;20041;-77
2023/09/19 03:25:46;;;;;;;0.30;0.30;;;;;;;14.25;100.00;98988.81;5072219;28;20516;-78
2023/09/19 03:28:12;;;;;;;0.30;0.30;;;;;;;14.32;100.00;98996.78;5055602;28;20459;-77
2023/09/19 03:30:38;;;;;;;0.60;0.60;;;;;;;14.36;100.00;98987.13;5072157;28;20036;-77
2023/09/19 03:33:04;;;;;;;0.50;0.40;;;;;;;14.41;100.00;98991.81;5055352;28;20387;-76
2023/09/19 03:35:30;;;;;;;0.52;0.52;;;;;;;14.42;100.00;98974.50;5038854;28;20071;-77
2023/09/19 03:37:57;;;;;;;0.30;0.30;;;;;;;14.42;100.00;98977.19;5039344;28;20541;-76
2023/09/19 03:40:23;;;;;;;0.55;0.55;;;;;;;14.49;100.00;98975.16;5055566;28;20056;-76
2023/09/19 03:42:49;;;;;;;0.40;0.40;;;;;;;14.56;100.00;98966.94;5072146;28;20028;-76
2023/09/19 03:45:16;;;;;;;0.47;0.43;;;;;;;14.63;100.00;98976.53;5055521;28;20025;-76
2023/09/19 03:47:41;;;;;;;0.30;0.30;;;;;;;14.69;100.00;98970.13;5039291;28;20055;-76
2023/09/19 03:50:11;;;;;;;0.30;0.30;;;;;;;14.74;100.00;98964.00;5038853;28;20503;-77
2023/09/19 03:52:37;;;;;;;0.40;0.40;;;;;;;14.80;100.00;98968.41;5055765;28;20032;-78
2023/09/19 03:55:04;;;;;;;0.35;0.30;;;;;;;14.83;100.00;98962.50;5038891;28;20139;-76
2023/09/19 03:57:30;;;;;;;0.63;0.40;;;;;;;14.91;100.00;98962.06;5055300;28;20031;-77
2023/09/19 03:59:56;;;;;;;0.30;0.30;;;;;;;14.93;100.00;98968.06;5055335;28;20436;-76
2023/09/19 04:02:22;;;;;;;0.35;0.35;;;;;;;14.99;100.00;98965.44;5038901;28;20037;-77
2023/09/19 04:04:50;;;;;;;1.75;0.50;;;;;;;14.97;100.00;98951.31;5038816;28;20193;-77
2023/09/19 04:07:17;;;;;;;0.30;0.30;;;;;;;15.01;100.00;98963.31;5055073;28;20041;-76
2023/09/19 04:09:45;;;;;;;0.30;0.30;;;;;;;14.99;100.00;98968.13;5071641;28;20382;-77
2023/09/19 04:12:12;;;;;;;0.30;0.30;;;;;;;15.02;100.00;98967.63;5055699;28;20036;-77
2023/09/19 04:14:38;;;;;;;0.50;0.50;;;;;;;15.03;100.00;98966.56;5055263;28;20033;-76
2023/09/19 04:17:05;;;;;;;0.28;0.28;;;;;;;15.00;100.00;98969.75;5071558;28;20064;-77
2023/09/19 04:19:31;;;;;;;0.25;0.25;;;;;;;15.02;100.00;98956.81;5055366;28;20131;-77
2023/09/19 04:21:56;;;;;;;0.20;0.20;;;;;;;15.04;100.00;98962.78;5038777;28;20431;-78
2023/09/19 04:24:22;;;;;;;0.80;0.80;;;;;;;15.03;100.00;98953.88;5071546;28;20024;-77
2023/09/19 04:26:48;;;;;;;0.25;0.25;;;;;;;15.03;100.00;98955.72;5055227;28;20082;-77
2023/09/19 04:29:14;;;;;;;1.75;0.32;;;;;;;15.03;100.00;98961.13;5071701;28;20056;-77
2023/09/19 04:31:40;;;;;;;2.13;0.55;;;;;;;15.05;100.00;98956.31;5054924;28;20112;-77
2023/09/19 04:34:07;;;;;;;0.35;0.30;;;;;;;15.06;100.00;98957.97;5074275;28;20039;-76
2023/09/19 04:36:33;;;;;;;0.40;0.40;;;;;;;15.02;100.00;98951.41;5058824;28;20067;-76
2023/09/19 04:38:58;;;;;;;0.38;0.38;;;;;;;15.02;100.00;98945.97;5058571;28;20207;-77
2023/09/19 04:41:24;;;;;;;0.50;0.40;;;;;;;15.05;100.00;98948.19;5058202;28;20056;-77
2023/09/19 04:43:51;;;;;;;0.65;0.47;;;;;;;15.05;100.00;98948.19;5074935;28;20101;-77
2023/09/19 04:46:17;;;;;;;0.40;0.30;;;;;;;15.05;100.00;98953.59;5074621;28;20035;-77
2023/09/19 04:48:43;;;;;;;0.30;0.30;;;;;;;15.05;100.00;98942.78;5074573;28;20032;-77
2023/09/19 04:51:10;;;;;;;0.30;0.30;;;;;;;15.05;100.00;98943.59;5041905;28;20460;-77
2023/09/19 04:53:36;;;;;;;1.55;0.52;;;;;;;15.04;100.00;98952.78;5074831;28;20032;-77
2023/09/19 04:56:03;;;;;;;0.30;0.30;;;;;;;15.08;100.00;98962.06;5057976;28;20033;-77
2023/09/19 04:58:29;;;;;;;0.30;0.30;;;;;;;15.06;100.00;98950.66;5058295;28;20169;-76
2023/09/19 05:00:56;;;;;;;2.70;0.30;;;;;;;15.06;100.00;98950.66;5074484;28;20028;-78
2023/09/19 05:03:22;;;;;;;0.30;0.30;;;;;;;15.10;100.00;98956.38;5074373;28;20031;-76
2023/09/19 05:05:48;;;;;;;0.43;0.40;;;;;;;15.09;100.00;98960.16;5074509;28;20029;-76
2023/09/19 05:08:14;;;;;;;0.40;0.40;;;;;;;15.08;100.00;98959.34;5057695;28;20390;-78
2023/09/19 05:10:40;;;;;;;0.30;0.30;;;;;;;15.09;100.00;98963.69;5024566;28;20395;-77
2023/09/19 05:13:07;;;;;;;0.20;0.20;;;;;;;15.11;100.00;98968.84;5041540;28;20090;-76
2023/09/19 05:15:33;;;;;;;0.28;0.28;;;;;;;15.09;100.00;98954.75;5025011;28;20361;-77
2023/09/19 05:17:59;;;;;;;1.40;0.40;;;;;;;15.12;100.00;98959.66;5040559;28;20028;-79
2023/09/19 05:20:33;;;;;;;0.38;0.38;;;;;;;15.12;100.00;98957.78;5057829;28;20040;-76
2023/09/19 05:23:02;;;;;;;0.30;0.30;;;;;;;15.13;100.00;98953.97;5042297;28;20498;-77
2023/09/19 05:25:29;;;;;;;0.30;0.30;;;;;;;15.16;100.00;98955.38;5075050;28;20052;-77
2023/09/19 05:27:57;;;;;;;0.40;0.40;;;;;;;15.16;100.00;98939.97;5074237;28;20052;-77
2023/09/19 05:30:24;;;;;;;0.30;0.30;;;;;;;15.16;100.00;98955.38;5024427;28;20029;-77
2023/09/19 05:32:51;;;;;;;0.30;0.30;;;;;;;15.15;100.00;98948.34;5041165;28;20076;-77
2023/09/19 05:35:16;;;;;;;0.40;0.30;;;;;;;15.16;100.00;98950.81;5040963;28;20051;-77
2023/09/19 05:37:42;;;;;;;1.30;0.50;;;;;;;15.17;100.00;98963.25;5073801;28;20016;-77
2023/09/19 05:40:12;;;;;;;0.77;0.32;;;;;;;15.16;100.00;98966.19;5057479;28;20123;-78
2023/09/19 05:42:39;;;;;;;4.65;0.95;;;;;;;15.19;100.00;98965.72;5074826;28;20048;-77
2023/09/19 05:45:06;;;;;;;1.10;0.45;;;;;;;15.17;100.00;98962.44;5040975;28;20542;-77
2023/09/19 05:47:32;;;;;;;0.47;0.47;;;;;;;15.16;100.00;98966.19;5073776;28;20032;-78
2023/09/19 05:49:59;;;;;;;3.80;0.57;;;;;;;15.17;100.00;98959.75;5040369;28;20032;-77
2023/09/19 05:52:25;;;;;;;1.30;0.77;;;;;;;15.15;100.00;98965.38;5073010;28;20081;-77
2023/09/19 05:54:50;;;;;;;0.43;0.43;;;;;;;15.16;100.00;98958.06;5057189;28;20040;-77
2023/09/19 05:57:16;;;;;;;1.65;0.47;;;;;;;15.16;100.00;98961.63;5073621;28;20127;-77
2023/09/19 05:59:43;;;;;;;0.55;0.50;;;;;;;15.19;100.00;98960.31;5056702;28;20040;-77
2023/09/19 06:02:11;;;;;;;0.30;0.30;;;;;;;15.10;100.00;98940.94;5057385;28;20036;-77
2023/09/19 06:04:40;;;;;;;0.95;0.60;;;;;;;15.19;100.00;98954.91;5057402;28;20043;-77
2023/09/19 06:07:06;;;;;;;0.57;0.40;;;;;;;15.21;100.00;98962.75;5040839;28;20024;-77
2023/09/19 06:09:32;;;;;;;1.38;0.40;;;;;;;15.21;100.00;98955.44;5056643;28;20032;-77
2023/09/19 06:11:58;;;;;;;0.30;0.30;;;;;;;15.22;100.00;98953.59;5073286;28;20523;-77
2023/09/19 06:14:24;;;;;;;1.90;0.40;;;;;;;15.22;100.00;98957.09;5039910;28;20033;-77
2023/09/19 06:16:50;;;;;;;0.38;0.38;;;;;;;15.17;100.00;98941.59;5073452;28;20466;-77
2023/09/19 06:19:15;;;;;;;0.68;0.50;;;;;;;15.22;100.00;98951.69;5056416;28;20036;-77
2023/09/19 06:21:42;;;;;;;0.63;0.50;;;;;;;15.23;100.00;98955.22;5040307;28;20094;-77
2023/09/19 06:24:07;;;;;;;0.30;0.30;;;;;;;15.24;100.00;98952.25;5073084;28;20028;-77
2023/09/19 06:26:33;;;;;;;1.30;0.40;;;;;;;15.24;100.00;98952.25;5072903;28;20035;-77
2023/09/19 06:28:59;;;;;;;3.88;0.70;;;;;;;15.26;100.00;98943.88;5039925;28;20375;-77
2023/09/19 06:31:26;;;;;;;1.40;0.38;;;;;;;15.24;100.00;98943.28;5039988;28;20033;-78
2023/09/19 06:33:52;;;;;;;1.45;0.75;;;;;;;15.25;100.00;98951.19;5040156;28;20086;-77
2023/09/19 06:36:19;;;;;;;2.30;0.77;;;;;;;15.27;100.00;98949.03;5039628;28;20037;-76
2023/09/19 06:38:44;;;;;;;2.65;0.40;;;;;;;15.25;100.00;98948.47;5056341;28;20051;-77
2023/09/19 06:41:12;;;;;;;1.48;0.45;;;;;;;15.28;100.00;98961.50;5072709;28;20028;-77
2023/09/19 06:43:39;;;;;;;0.28;0.28;;;;;;;15.24;100.00;98952.25;5072712;28;20425;-77
2023/09/19 06:46:07;;;;;;;2.25;0.73;;;;;;;15.25;100.00;98953.88;5056096;28;20024;-77
2023/09/19 06:48:33;;;;;;;0.57;0.57;;;;;;;15.24;100.00;98954.13;5072624;28;20111;-77
2023/09/19 06:51:04;;;;;;;0.60;0.40;;;;;;;15.25;100.00;98953.88;5072553;28;20036;-77
2023/09/19 06:53:34;;;;;;;0.40;0.40;;;;;;;15.26;100.00;98955.50;5056704;28;20055;-77
2023/09/19 06:56:00;;;;;;;0.30;0.30;;;;;;;15.26;100.00;98963.63;5055358;28;20493;-77
2023/09/19 06:58:26;;;;;;;0.30;0.30;;;;;;;15.29;100.00;98957.72;5055972;28;20036;-77
2023/09/19 07:00:51;;;;;;;0.40;0.40;;;;;;;15.29;100.00;98960.41;5072185;28;20032;-77
2023/09/19 07:03:21;;;;;;;0.63;0.47;;;;;;;15.28;100.00;98966.91;5072519;28;20032;-77
2023/09/19 07:05:48;;;;;;;0.60;0.40;;;;;;;15.30;100.00;98970.19;5072624;28;20471;-78
2023/09/19 07:08:14;;;;;;;0.30;0.30;;;;;;;15.32;100.00;98967.22;5055074;28;20048;-77
2023/09/19 07:10:40;;;;;;;0.73;0.65;;;;;;;15.29;100.00;98959.59;5054024;28;20090;-78
2023/09/19 07:13:10;;;;;;;0.30;0.30;;;;;;;15.34;100.00;98970.50;5070153;28;20033;-77
2023/09/19 07:15:39;;;;;;;0.28;0.28;;;;;;;15.35;100.00;98970.28;5037486;28;20119;-77
2023/09/19 07:18:05;;;;;;;0.30;0.30;;;;;;;15.36;100.00;98977.31;5053855;28;20610;-79
2023/09/19 07:20:34;;;;;;;0.30;0.30;;;;;;;15.36;100.00;98958.34;5037075;28;20463;-77
2023/09/19 07:23:00;;;;;;;0.80;0.40;;;;;;;15.38;100.00;98974.38;5037060;28;20033;-80
2023/09/19 07:25:26;;;;;;;0.30;0.30;;;;;;;15.36;100.00;98971.91;5038041;28;20483;-77
2023/09/19 07:27:52;;;;;;;0.30;0.30;;;;;;;15.36;100.00;98973.78;5039109;28;20060;-76
2023/09/19 07:30:18;;;;;;;1.27;0.50;;;;;;;15.36;100.00;98971.09;5055368;28;20128;-77
2023/09/19 07:32:43;;;;;;;1.85;0.40;;;;;;;15.34;100.00;98965.09;5038989;28;20041;-76
2023/09/19 07:35:10;;;;;;;0.40;0.40;;;;;;;15.35;100.00;98964.84;5038908;28;20060;-78
2023/09/19 07:37:36;;;;;;;0.40;0.40;;;;;;;15.36;100.00;98966.47;5055770;28;20093;-79
2023/09/19 07:40:06;;;;;;;0.32;0.32;;;;;;;15.36;100.00;98960.25;5038340;28;20032;-80
2023/09/19 07:42:40;;;;;;;0.50;0.50;;;;;;;15.36;100.00;98966.47;5055924;28;20475;-78
2023/09/19 07:45:09;;;;;;;0.30;0.30;;;;;;;15.40;100.00;98964.13;5055503;28;20029;-79
2023/09/19 07:47:36;;;;;;;1.42;0.40;;;;;;;15.40;100.00;98958.69;5038167;28;20457;-79
2023/09/19 07:50:07;;;;;;;0.75;0.55;;;;;;;15.42;100.00;98961.13;5071948;28;20025;-76
2023/09/19 07:52:33;;;;;;;1.95;0.40;;;;;;;15.39;100.00;98949.72;5055655;28;20025;-78
2023/09/19 07:55:01;;;;;;;0.47;0.30;;;;;;;15.43;100.00;98960.91;5071615;28;20033;-77
2023/09/19 07:57:29;;;;;;;0.30;0.30;;;;;;;15.45;100.00;98961.44;5039076;28;20482;-79
2023/09/19 07:59:55;;;;;;;0.20;0.20;;;;;;;15.46;100.00;98973.94;5055296;28;20051;-79
2023/09/19 08:02:22;;;;;;;1.00;0.40;;;;;;;15.46;100.00;98967.69;5071893;28;20033;-76
2023/09/19 08:04:48;;;;;;;0.30;0.30;;;;;;;15.46;100.00;98971.22;5053534;28;20024;-79
2023/09/19 08:07:14;;;;;;;0.30;0.30;;;;;;;15.45;100.00;98969.56;5054056;28;20035;-79
2023/09/19 08:09:40;;;;;;;0.35;0.32;;;;;;;15.45;100.00;98963.34;5042072;28;20037;-79
2023/09/19 08:12:10;;;;;;;0.57;0.57;;;;;;;15.41;100.00;98963.03;5042366;28;20033;-79
2023/09/19 08:14:37;;;;;;;0.45;0.45;;;;;;;15.52;100.00;98975.63;5075329;28;20029;-77
2023/09/19 08:17:05;;;;;;;0.30;0.30;;;;;;;15.58;100.00;98981.91;5075164;28;20039;-78
2023/09/19 08:19:33;;;;;;;0.22;0.22;;;;;;;15.58;100.00;98981.91;5042241;28;20036;-78
2023/09/19 08:22:02;;;;;;;0.35;0.32;;;;;;;15.57;100.00;98970.28;5041454;28;20032;-79
2023/09/19 08:24:28;;;;;;;0.52;0.52;;;;;;;15.61;100.00;98965.16;5042137;28;20494;-80
2023/09/19 08:26:55;;;;;;;0.40;0.40;;;;;;;15.60;100.00;98966.25;5058100;28;20463;-79
2023/09/19 08:29:27;;;;;;;0.57;0.57;;;;;;;15.61;100.00;98971.41;5042044;28;20029;-79
2023/09/19 08:31:56;;;;;;;0.25;0.25;;;;;;;15.62;100.00;98972.22;5042582;28;20039;-79
2023/09/19 08:34:23;;;;;;;2.17;0.73;;;;;;;15.63;100.00;98973.84;5042071;28;20550;-80
2023/09/19 08:36:56;;;;;;;0.63;0.45;;;;;;;15.66;100.00;98957.09;5074901;28;20032;-80
2023/09/19 08:39:22;;;;;;;1.80;0.63;;;;;;;15.70;100.00;98979.13;5074565;28;20025;-79
2023/09/19 08:41:48;;;;;;;0.63;0.50;;;;;;;15.72;100.00;98972.38;5057905;28;20334;-79
2023/09/19 08:44:14;;;;;;;0.93;0.55;;;;;;;15.72;100.00;98966.97;5058322;28;20040;-79
2023/09/19 08:46:41;;;;;;;0.75;0.50;;;;;;;15.76;100.00;98987.06;5075718;28;20036;-80
2023/09/19 08:49:24;;;;;;;2.25;0.85;;;;;;;15.78;100.00;98965.13;5041136;28;20062;-78
2023/09/19 08:51:55;;;;;;;0.60;0.50;;;;;;;15.75;100.00;98962.94;5072701;28;20024;-79
2023/09/19 08:54:29;;;;;;;0.82;0.40;;;;;;;15.71;100.00;98970.72;5040156;28;20098;-77
2023/09/19 08:56:56;;;;;;;0.60;0.60;;;;;;;15.69;100.00;98967.47;5039401;28;20025;-78
2023/09/19 08:59:26;;;;;;;0.63;0.50;;;;;;;15.71;100.00;98972.63;5039100;28;20037;-80
2023/09/19 09:01:56;;;;;;;0.40;0.40;;;;;;;15.76;100.00;98976.22;5072663;28;20040;-79
2023/09/19 09:04:22;;;;;;;0.40;0.40;;;;;;;15.75;100.00;98985.44;5072155;28;20028;-80
2023/09/19 09:06:50;;;;;;;2.88;0.70;;;;;;;15.78;100.00;98981.38;5073347;28;20527;-77
2023/09/19 09:09:17;;;;;;;0.35;0.35;;;;;;;15.82;100.00;98983.34;5057873;28;20120;-78
2023/09/19 09:11:42;;;;;;;0.50;0.50;;;;;;;15.91;100.00;98989.13;5057678;28;20471;-78
2023/09/19 09:14:08;;;;;;;1.45;0.80;;;;;;;15.97;100.00;98984.59;5057705;28;20051;-78
2023/09/19 09:16:34;;;;;;;1.58;0.70;;;;;;;15.91;100.00;98994.56;5057769;28;20395;-78
2023/09/19 09:19:00;;;;;;;0.47;0.45;;;;;;;15.83;100.00;98990.41;5073619;28;20032;-77
2023/09/19 09:21:26;;;;;;;0.35;0.35;;;;;;;15.81;100.00;98994.44;5041108;28;20064;-77
2023/09/19 09:23:53;;;;;;;0.50;0.50;;;;;;;15.83;100.00;98987.69;5057523;28;20033;-78
2023/09/19 09:26:42;;;;;;;2.65;0.85;;;;;;;15.83;100.00;99001.22;5057810;28;20483;-78
2023/09/19 09:29:08;;;;;;;0.80;0.73;;;;;;;15.83;100.00;99014.78;5057351;28;20127;-77
2023/09/19 09:31:33;;;;;;;1.98;0.60;;;;;;;15.82;100.00;99006.91;5057504;28;20523;-77
2023/09/19 09:34:00;;;;;;;0.57;0.57;;;;;;;15.87;100.00;99019.69;5073762;28;20032;-77
2023/09/19 09:36:41;;;;;;;1.55;0.73;;;;;;;15.85;100.00;99006.41;5057883;28;20072;-77
2023/09/19 09:39:18;;;;;;;1.38;1.10;;;;;;;15.85;100.00;99017.25;5056990;28;20024;-78
2023/09/19 09:41:45;;;;;;;0.82;0.57;;;;;;;15.90;100.00;99017.28;5058603;28;20037;-78
2023/09/19 09:44:17;;;;;;;2.50;0.77;;;;;;;15.93;100.00;99018.69;5040902;28;20028;-78
2023/09/19 09:49:32;;;;;;;1.15;0.70;;;;;;;16.15;100.00;99018.66;5057899;28;20041;-78
2023/09/19 09:52:16;;;;;;;0.93;0.65;;;;;;;16.23;100.00;99013.59;5056824;28;20039;-78
2023/09/19 09:55:07;;;;;;;0.40;0.40;;;;;;;16.31;100.00;99025.06;5057906;28;20020;-79
2023/09/19 09:57:34;;;;;;;1.07;0.60;;;;;;;16.33;100.00;99022.94;5057946;28;20055;-78
2023/09/19 10:00:16;;;;;;;1.10;0.65;;;;;;;16.33;100.00;99033.78;5040356;28;20265;-78
2023/09/19 10:02:45;;;;;;;3.53;0.85;;;;;;;16.40;100.00;99028.94;5073596;28;20041;-78
2023/09/19 10:07:53;;;;;;;1.10;0.80;;;;;;;16.49;100.00;99027.44;5042784;28;20032;-78
2023/09/19 10:13:13;;;;;;;0.60;0.50;;;;;;;16.81;100.00;99013.88;5073352;28;20383;-78
2023/09/19 10:15:48;;;;;;;0.50;0.50;;;;;;;16.88;100.00;99019.09;5057063;28;20045;-78
2023/09/19 10:18:18;;;;;;;0.40;0.40;;;;;;;16.93;100.00;99000.13;5057759;28;20387;-78
2023/09/19 10:20:45;;;;;;;0.65;0.60;;;;;;;17.04;100.00;99004.56;5056825;28;20032;-78
2023/09/19 10:23:12;;;;;;;1.52;0.60;;;;;;;17.04;100.00;99001.84;5056875;28;20498;-78
2023/09/19 10:25:40;;;;;;;0.43;0.43;;;;;;;16.98;100.00;99008.31;5056685;28;20028;-78
2023/09/19 10:28:10;;;;;;;1.95;0.77;;;;;;;16.87;100.00;99012.03;5040158;28;20043;-78
2023/09/19 10:30:43;;;;;;;1.45;0.65;;;;;;;16.73;100.00;99018.94;5040138;28;20035;-77
2023/09/19 10:33:09;;;;;;;0.63;0.63;;;;;;;16.53;100.00;99017.69;5025168;28;20037;-77
2023/09/19 10:35:40;;;;;;;4.07;0.93;;;;;;;16.46;100.00;99031.47;5056616;28;20357;-77
2023/09/19 10:38:06;;;;;;;2.17;0.95;;;;;;;16.47;100.00;99022.25;5040501;28;20207;-77
2023/09/19 10:40:35;;;;;;;0.82;0.50;;;;;;;16.51;100.00;99008.16;5039961;28;20055;-78
2023/09/19 10:43:06;;;;;;;1.17;1.08;;;;;;;16.55;100.00;99022.84;5023583;28;20036;-78
2023/09/19 10:45:33;;;;;;;4.65;1.48;;;;;;;16.60;100.00;99014.78;5040194;28;20040;-79
2023/09/19 10:48:03;;;;;;;1.70;0.93;;;;;;;16.55;100.00;99017.44;5023331;28;20090;-78
2023/09/19 10:50:33;;;;;;;1.70;0.82;;;;;;;16.66;100.00;99008.31;5023222;28;20217;-77
2023/09/19 10:53:04;;;;;;;3.10;1.02;;;;;;;16.74;100.00;99015.16;5056229;28;20044;-77
2023/09/19 10:55:31;;;;;;;4.07;1.17;;;;;;;16.68;100.00;99011.56;5072301;28;20081;-78
2023/09/19 10:58:14;;;;;;;0.82;0.73;;;;;;;16.67;100.00;99008.06;5055991;28;20103;-78
2023/09/19 11:00:53;;;;;;;;;;;;;;;16.71;100.00;99014.59;5042206;28;20052;-78
2023/09/19 11:03:23;;;;;;;2.20;1.38;;;;;;;16.71;100.00;99009.16;5056073;28;19916;-78
2023/09/19 11:06:09;;;;;;;2.13;1.13;;;;;;;16.67;100.00;99008.06;5023988;28;20131;-78
2023/09/19 11:09:21;;;;;;;0.80;0.80;;;;;;;16.73;100.00;98999.97;5073556;28;20036;-78
2023/09/19 11:11:57;;;;;;;1.00;0.77;;;;;;;16.93;100.00;99000.13;5041804;28;20115;-79
2023/09/19 11:14:28;;;;;;;2.25;0.90;;;;;;;16.88;100.00;99013.66;5041662;28;20036;-78
2023/09/19 11:17:21;;;;;;;0.73;0.63;;;;;;;17.03;100.00;99011.06;5072663;28;20093;-78
2023/09/19 11:20:11;;;;;;;1.95;0.88;;;;;;;17.40;100.00;99009.41;5055882;28;20489;-78
2023/09/19 11:22:58;;;;;;;2.67;0.98;;;;;;;17.44;100.00;99016.75;5072522;28;20123;-78
2023/09/19 11:25:30;;;;;;;2.42;1.30;;;;;;;17.84;100.00;99015.34;5073275;28;20020;-78
2023/09/19 11:28:08;;;;;;;3.08;1.30;;;;;;;18.29;100.00;99024.72;5072450;28;20033;-78
2023/09/19 11:30:43;;;;;;;2.22;1.10;;;;;;;18.76;100.00;99029.19;5073472;28;20028;-78
2023/09/19 11:36:01;;;;;;;1.95;0.95;;;;;;;17.80;100.00;99015.03;5072105;28;20024;-78
2023/09/19 11:38:49;;;;;;;5.43;2.13;;;;;;;17.52;100.00;99029.03;5055334;28;20033;-78
2023/09/19 11:41:21;;;;;;;5.80;1.58;;;;;;;17.27;100.00;99027.78;5072198;28;20402;-78
2023/09/19 11:44:00;;;;;;;2.15;1.27;;;;;;;17.11;100.00;99031.47;5075942;28;20029;-78